Time;durP1;ratioP1;P1;durP2;ratioP2;P2;SDS_P1;SDS_P2;PMS_P1;PMS_P2;Temp;Humidity;BMP_temperature;BMP_pressure;BME280_temperature;BME280_humidity;BME280_pressure;Samples;Min_cycle;Max_cycle;Signal;HPM_P1;HPM_P2
2023/08/12 00:01:39;;;;;;;7.63;5.15;;;23.60;56.00;;;;;;6132946;28;80301;-62
2023/08/12 00:04:40;;;;;;;7.03;4.10;;;23.60;56.00;;;;;;6160740;28;80453;-62
2023/08/12 00:07:43;;;;;;;7.93;4.15;;;23.60;55.90;;;;;;6132591;28;81724;-62
2023/08/12 00:10:44;;;;;;;6.90;4.40;;;23.60;55.90;;;;;;6121481;28;82026;-62
2023/08/12 00:13:44;;;;;;;6.30;4.30;;;23.60;55.90;;;;;;6114480;28;82426;-65
2023/08/12 00:16:45;;;;;;;7.20;4.70;;;23.60;55.80;;;;;;6107190;28;80566;-64
2023/08/12 00:19:45;;;;;;;6.63;4.32;;;23.60;55.80;;;;;;6126440;28;81296;-64
2023/08/12 00:22:46;;;;;;;5.93;3.92;;;23.60;55.50;;;;;;6109132;28;80663;-64
2023/08/12 00:25:46;;;;;;;8.63;4.72;;;23.60;55.40;;;;;;6142436;28;81188;-63
2023/08/12 00:28:47;;;;;;;6.38;3.88;;;23.60;55.40;;;;;;6109538;28;80456;-63
2023/08/12 00:31:47;;;;;;;5.95;4.07;;;23.60;55.50;;;;;;6136750;28;83607;-47
2023/08/12 00:34:49;;;;;;;13.50;4.60;;;23.50;55.70;;;;;;6149739;28;83727;-53
2023/08/12 00:37:49;;;;;;;6.40;4.18;;;23.50;55.80;;;;;;6129657;28;82670;-51
2023/08/12 00:40:50;;;;;;;7.75;4.55;;;23.50;55.40;;;;;;6156093;28;83240;-51
2023/08/12 00:43:51;;;;;;;5.95;4.25;;;23.50;55.30;;;;;;6106242;28;80619;-49
2023/08/12 00:46:51;;;;;;;5.80;3.65;;;23.50;55.40;;;;;;6118833;28;81480;-50
2023/08/12 00:49:52;;;;;;;6.25;4.18;;;23.50;55.30;;;;;;6117011;28;80942;-57
2023/08/12 00:52:53;;;;;;;9.18;4.30;;;23.50;55.30;;;;;;6120685;28;83184;-58
2023/08/12 00:55:54;;;;;;;7.13;3.97;;;23.50;55.40;;;;;;6137019;28;84433;-58
2023/08/12 00:58:55;;;;;;;6.57;4.70;;;23.50;55.30;;;;;;6113340;28;83751;-58
2023/08/12 01:01:55;;;;;;;5.50;3.85;;;23.50;55.30;;;;;;6108860;28;80558;-59
2023/08/12 01:04:56;;;;;;;13.77;4.22;;;23.50;55.50;;;;;;6132033;28;81101;-59
2023/08/12 01:07:56;;;;;;;7.13;4.22;;;23.50;55.60;;;;;;6112166;28;80668;-58
2023/08/12 01:10:57;;;;;;;7.07;4.30;;;23.40;55.60;;;;;;6129160;28;80667;-58
2023/08/12 01:13:57;;;;;;;5.72;4.25;;;23.40;55.60;;;;;;6129177;28;80831;-58
2023/08/12 01:16:58;;;;;;;7.25;4.82;;;23.50;55.60;;;;;;6130251;28;80622;-58
2023/08/12 01:19:58;;;;;;;7.63;4.55;;;23.40;55.50;;;;;;6123550;28;80587;-58
2023/08/12 01:22:58;;;;;;;7.05;4.32;;;23.50;55.60;;;;;;6129092;28;80400;-58
2023/08/12 01:25:59;;;;;;;6.75;4.20;;;23.50;55.60;;;;;;6120578;28;83893;-59
2023/08/12 01:29:00;;;;;;;6.35;4.38;;;23.50;55.70;;;;;;6131090;28;83307;-58
2023/08/12 01:32:00;;;;;;;6.25;4.15;;;23.50;55.60;;;;;;6118813;28;83021;-58
2023/08/12 01:35:01;;;;;;;5.80;4.10;;;23.50;55.60;;;;;;6120727;28;80372;-58
2023/08/12 01:38:02;;;;;;;6.93;4.50;;;23.50;55.70;;;;;;6110050;28;83545;-58
2023/08/12 01:41:03;;;;;;;7.35;4.03;;;23.50;55.60;;;;;;6148548;28;83999;-58
2023/08/12 01:44:03;;;;;;;6.03;3.88;;;23.50;55.70;;;;;;6120355;28;80442;-66
2023/08/12 01:47:04;;;;;;;6.15;4.18;;;23.50;55.90;;;;;;6131682;28;83693;-65
2023/08/12 01:50:04;;;;;;;7.75;4.20;;;23.50;55.60;;;;;;6125241;28;83299;-66
2023/08/12 01:53:05;;;;;;;5.78;4.43;;;23.40;55.50;;;;;;6124732;28;80831;-66
2023/08/12 01:56:05;;;;;;;6.35;3.72;;;23.50;55.80;;;;;;6122087;28;80470;-65
2023/08/12 01:59:06;;;;;;;6.05;3.97;;;23.50;55.70;;;;;;6130290;28;91110;-65
2023/08/12 02:02:06;;;;;;;4.43;3.70;;;23.50;55.70;;;;;;6148273;28;81968;-66
2023/08/12 02:05:07;;;;;;;6.45;3.72;;;23.50;55.40;;;;;;6124751;28;81094;-66
2023/08/12 02:08:08;;;;;;;5.53;3.88;;;23.50;55.50;;;;;;6164360;28;80695;-67
2023/08/12 02:11:09;;;;;;;7.03;4.18;;;23.50;55.50;;;;;;6125442;28;80578;-65
2023/08/12 02:14:09;;;;;;;5.78;3.22;;;23.50;55.40;;;;;;6136067;28;80844;-65
2023/08/12 02:17:10;;;;;;;5.30;3.88;;;23.50;55.60;;;;;;6120298;28;83336;-65
2023/08/12 02:20:11;;;;;;;6.63;4.30;;;23.50;55.40;;;;;;6115823;28;80842;-66
2023/08/12 02:23:11;;;;;;;6.78;3.60;;;23.40;55.30;;;;;;6127994;28;80328;-67
2023/08/12 02:26:12;;;;;;;6.60;3.90;;;23.50;55.40;;;;;;6126814;28;80959;-66
2023/08/12 02:29:12;;;;;;;12.23;4.25;;;23.50;55.30;;;;;;6127328;28;80479;-65
2023/08/12 02:32:13;;;;;;;6.03;3.72;;;23.40;55.20;;;;;;6130293;28;80800;-63
2023/08/12 02:35:13;;;;;;;7.97;4.57;;;23.40;55.40;;;;;;6151613;28;80613;-65
2023/08/12 02:38:14;;;;;;;8.95;3.92;;;23.40;55.50;;;;;;6107527;28;80507;-65
2023/08/12 02:41:14;;;;;;;7.60;4.70;;;23.40;55.40;;;;;;6132036;28;80668;-53
2023/08/12 02:44:15;;;;;;;5.60;4.07;;;23.40;55.40;;;;;;6129693;28;80642;-51
2023/08/12 02:47:15;;;;;;;7.55;3.95;;;23.30;55.50;;;;;;6124153;28;81713;-48
2023/08/12 02:50:16;;;;;;;5.43;3.55;;;23.30;55.50;;;;;;6126540;28;80761;-53
2023/08/12 02:53:17;;;;;;;5.57;3.75;;;23.30;55.50;;;;;;6122755;28;82594;-49
2023/08/12 02:56:17;;;;;;;4.90;3.85;;;23.30;55.50;;;;;;6103520;28;83079;-51
2023/08/12 02:59:18;;;;;;;6.70;4.13;;;23.30;55.50;;;;;;6126198;28;83351;-59
2023/08/12 03:02:18;;;;;;;6.60;4.15;;;23.30;55.50;;;;;;6105609;28;81539;-59
2023/08/12 03:05:19;;;;;;;7.93;4.07;;;23.30;55.50;;;;;;6104025;28;80854;-60
2023/08/12 03:08:20;;;;;;;7.65;4.07;;;23.20;55.50;;;;;;6116654;28;80661;-59
2023/08/12 03:11:22;;;;;;;7.53;4.60;;;23.20;55.40;;;;;;6119033;28;83711;-59
2023/08/12 03:14:23;;;;;;;6.97;4.47;;;23.20;55.50;;;;;;6107489;28;83591;-58
2023/08/12 03:17:23;;;;;;;8.25;3.97;;;23.20;55.40;;;;;;6109582;28;81235;-47
2023/08/12 03:20:24;;;;;;;6.53;4.18;;;23.20;55.40;;;;;;6114279;28;80404;-51
2023/08/12 03:23:25;;;;;;;6.43;4.13;;;23.20;55.40;;;;;;6105291;28;80409;-51
2023/08/12 03:26:26;;;;;;;5.05;3.80;;;23.20;55.40;;;;;;6100711;28;82671;-52
2023/08/12 03:29:28;;;;;;;6.60;4.00;;;23.20;55.40;;;;;;6101655;28;82556;-49
2023/08/12 03:32:29;;;;;;;7.45;3.92;;;23.20;55.40;;;;;;6123159;28;83509;-48
2023/08/12 03:35:29;;;;;;;7.35;3.80;;;23.20;55.40;;;;;;6139633;28;81169;-58
2023/08/12 03:38:30;;;;;;;8.13;4.10;;;23.10;55.30;;;;;;6116197;28;80534;-58
2023/08/12 03:41:31;;;;;;;4.75;3.33;;;23.20;55.30;;;;;;6127718;28;80570;-58
2023/08/12 03:44:34;;;;;;;5.55;3.58;;;23.20;55.30;;;;;;6125270;28;82976;-58
2023/08/12 03:47:35;;;;;;;6.25;4.20;;;23.20;55.30;;;;;;6127874;28;82235;-58
2023/08/12 03:50:36;;;;;;;6.93;3.30;;;23.20;55.30;;;;;;6127978;28;83277;-58
2023/08/12 03:53:36;;;;;;;8.50;4.43;;;23.10;55.30;;;;;;6130413;28;81378;-58
2023/08/12 03:56:37;;;;;;;5.68;3.45;;;23.20;55.50;;;;;;6111317;28;83345;-58
2023/08/12 03:59:38;;;;;;;5.63;3.83;;;23.10;55.50;;;;;;6117000;28;82957;-58
2023/08/12 04:02:40;;;;;;;7.50;3.85;;;23.20;55.50;;;;;;6118292;28;82507;-58
2023/08/12 04:05:40;;;;;;;5.63;4.00;;;23.20;55.50;;;;;;6116356;28;80587;-59
2023/08/12 04:08:41;;;;;;;5.30;3.60;;;23.10;55.60;;;;;;6117829;28;80672;-59
2023/08/12 04:11:42;;;;;;;5.43;3.70;;;23.20;55.70;;;;;;6127357;28;80658;-49
2023/08/12 04:14:42;;;;;;;6.85;3.10;;;23.20;55.60;;;;;;6121829;28;80481;-51
2023/08/12 04:17:43;;;;;;;5.13;3.70;;;23.20;55.60;;;;;;6124735;28;81977;-53
2023/08/12 04:20:45;;;;;;;11.88;4.72;;;23.20;55.70;;;;;;6119177;28;80452;-48
2023/08/12 04:23:46;;;;;;;4.70;3.65;;;23.10;55.70;;;;;;6128952;28;83328;-49
2023/08/12 04:26:46;;;;;;;5.60;3.65;;;23.20;55.70;;;;;;6128006;28;83188;-49
2023/08/12 04:29:47;;;;;;;3.90;3.13;;;23.20;55.70;;;;;;6114963;28;82970;-58
2023/08/12 04:32:48;;;;;;;14.82;3.88;;;23.20;55.80;;;;;;6120930;28;80463;-59
2023/08/12 04:35:49;;;;;;;5.68;3.58;;;23.20;55.70;;;;;;6135103;28;81500;-58
2023/08/12 04:38:51;;;;;;;5.63;3.30;;;23.20;55.70;;;;;;6108991;28;83393;-59
2023/08/12 04:41:52;;;;;;;5.00;3.15;;;23.20;55.60;;;;;;6125750;28;81687;-59
2023/08/12 04:44:53;;;;;;;4.80;3.00;;;23.20;55.80;;;;;;6108260;28;83312;-59
2023/08/12 04:47:54;;;;;;;5.90;3.17;;;23.20;55.80;;;;;;6105064;28;83488;-58
2023/08/12 04:50:59;;;;;;;6.60;3.75;;;23.20;56.00;;;;;;6122390;28;83445;-57
2023/08/12 04:54:01;;;;;;;4.55;3.58;;;23.20;56.00;;;;;;6105843;28;82249;-59
2023/08/12 04:57:02;;;;;;;13.63;3.70;;;23.20;56.10;;;;;;6102678;28;83279;-58
2023/08/12 05:00:03;;;;;;;7.38;3.35;;;23.20;56.10;;;;;;6125580;28;83748;-58
2023/08/12 05:03:04;;;;;;;9.55;3.67;;;23.20;56.30;;;;;;6143467;28;82321;-59
2023/08/12 05:06:05;;;;;;;6.85;4.55;;;23.20;56.30;;;;;;6122508;28;80779;-62
2023/08/12 05:09:06;;;;;;;9.50;3.28;;;23.30;56.30;;;;;;6122898;28;81861;-64
2023/08/12 05:12:07;;;;;;;11.65;3.25;;;23.20;56.30;;;;;;6123421;28;82280;-61
2023/08/12 05:15:07;;;;;;;6.93;3.45;;;23.30;56.40;;;;;;6130979;28;83593;-63
2023/08/12 05:18:08;;;;;;;7.20;3.70;;;23.20;56.40;;;;;;6126376;28;80852;-64
2023/08/12 05:21:08;;;;;;;9.25;3.65;;;23.30;56.50;;;;;;6111441;28;81126;-66
2023/08/12 05:24:11;;;;;;;10.88;4.05;;;23.30;56.60;;;;;;6121812;28;82709;-58
2023/08/12 05:27:11;;;;;;;4.80;3.28;;;23.30;56.70;;;;;;6131527;28;84026;-57
2023/08/12 05:30:12;;;;;;;5.32;3.25;;;23.30;56.70;;;;;;6127377;28;80345;-56
2023/08/12 05:33:12;;;;;;;5.38;3.30;;;23.30;56.80;;;;;;6144820;28;80959;-55
2023/08/12 05:36:13;;;;;;;11.85;3.40;;;23.30;57.00;;;;;;6132596;28;80504;-58
2023/08/12 05:39:15;;;;;;;10.73;3.20;;;23.30;57.40;;;;;;6126707;28;80427;-56
2023/08/12 05:42:15;;;;;;;6.22;4.15;;;23.50;57.30;;;;;;6130068;28;82916;-54
2023/08/12 05:45:16;;;;;;;9.82;3.50;;;23.50;57.60;;;;;;6128643;28;80512;-56
2023/08/12 05:48:16;;;;;;;9.02;3.53;;;23.50;57.20;;;;;;6125690;28;81436;-53
2023/08/12 05:51:17;;;;;;;14.98;4.05;;;23.50;57.30;;;;;;6128349;28;81403;-56
2023/08/12 05:54:17;;;;;;;11.10;3.67;;;23.60;57.80;;;;;;6120631;28;81295;-58
2023/08/12 05:57:18;;;;;;;8.60;3.03;;;23.60;58.00;;;;;;6126398;28;80347;-56
2023/08/12 06:00:19;;;;;;;7.47;3.40;;;23.60;58.00;;;;;;6128703;28;82244;-53
2023/08/12 06:03:20;;;;;;;19.15;3.72;;;23.60;58.20;;;;;;6127261;28;80766;-54
2023/08/12 06:06:21;;;;;;;7.38;3.47;;;23.70;58.10;;;;;;6127694;28;81062;-55
2023/08/12 06:09:22;;;;;;;6.70;3.30;;;23.70;58.10;;;;;;6123753;28;80334;-47
2023/08/12 06:12:22;;;;;;;7.93;3.35;;;23.70;58.00;;;;;;6124390;28;81484;-54
2023/08/12 06:15:23;;;;;;;10.15;3.00;;;23.80;58.10;;;;;;6125987;28;81237;-54
2023/08/12 06:18:23;;;;;;;11.40;3.63;;;23.80;57.70;;;;;;6119724;28;80879;-54
2023/08/12 06:21:24;;;;;;;9.27;3.85;;;23.80;57.50;;;;;;6138027;28;82603;-68
2023/08/12 06:24:24;;;;;;;9.48;3.70;;;23.80;57.60;;;;;;6159882;28;80134;-63
2023/08/12 06:27:25;;;;;;;7.43;4.05;;;23.80;57.90;;;;;;6130387;28;80108;-64
2023/08/12 06:30:25;;;;;;;6.90;4.00;;;23.90;58.20;;;;;;6139053;28;81171;-63
2023/08/12 06:33:26;;;;;;;10.80;5.00;;;23.80;57.60;;;;;;6148660;28;80015;-64
2023/08/12 06:36:26;;;;;;;27.33;10.70;;;23.90;58.00;;;;;;6146220;28;80838;-64
2023/08/12 06:39:27;;;;;;;26.70;13.02;;;23.80;58.40;;;;;;6137748;28;83219;-58
2023/08/12 06:42:27;;;;;;;39.75;16.35;;;23.80;58.80;;;;;;6124693;28;84139;-57
2023/08/12 06:45:29;;;;;;;31.77;16.40;;;23.90;58.90;;;;;;6122985;28;83518;-57
2023/08/12 06:48:30;;;;;;;47.55;22.75;;;24.00;59.10;;;;;;6123732;28;82941;-58
2023/08/12 06:51:30;;;;;;;56.33;27.50;;;24.00;59.00;;;;;;6123341;28;84810;-57
2023/08/12 06:54:31;;;;;;;55.78;28.13;;;24.00;58.90;;;;;;6114128;28;84165;-58
2023/08/12 06:57:31;;;;;;;59.17;28.80;;;24.00;59.10;;;;;;6122186;28;84465;-55
2023/08/12 07:00:31;;;;;;;43.97;22.08;;;24.00;59.00;;;;;;6088405;28;85468;-55
2023/08/12 07:03:32;;;;;;;41.53;20.80;;;24.00;58.10;;;;;;6117911;28;85341;-56
2023/08/12 07:06:33;;;;;;;40.33;20.83;;;24.00;58.10;;;;;;6126058;28;83189;-57
2023/08/12 07:09:33;;;;;;;39.20;20.23;;;24.00;58.20;;;;;;6103616;28;85134;-57
2023/08/12 07:12:35;;;;;;;29.80;16.05;;;24.00;58.10;;;;;;6096746;28;84397;-55
2023/08/12 07:15:35;;;;;;;30.33;15.38;;;24.00;58.00;;;;;;6121072;28;89917;-51
2023/08/12 07:18:36;;;;;;;29.25;13.80;;;24.00;58.10;;;;;;6128845;28;84256;-52
2023/08/12 07:21:36;;;;;;;25.10;12.27;;;24.00;58.20;;;;;;6123577;28;84234;-51
2023/08/12 07:24:37;;;;;;;18.35;9.52;;;24.00;58.30;;;;;;6124533;28;84034;-53
2023/08/12 07:27:37;;;;;;;18.80;8.43;;;24.00;58.20;;;;;;6129330;28;82941;-48
2023/08/12 07:30:38;;;;;;;14.55;6.32;;;24.00;58.20;;;;;;6134545;28;84708;-53
2023/08/12 07:33:38;;;;;;;10.32;6.90;;;23.90;58.10;;;;;;6107733;28;81057;-50
2023/08/12 07:36:39;;;;;;;11.38;5.35;;;23.90;58.40;;;;;;6113318;28;81206;-51
2023/08/12 07:39:39;;;;;;;11.23;5.05;;;24.00;58.70;;;;;;6131730;28;81019;-48
2023/08/12 07:42:40;;;;;;;9.65;5.97;;;23.90;58.80;;;;;;6131543;28;81749;-52
2023/08/12 07:45:40;;;;;;;7.82;5.32;;;24.00;59.00;;;;;;6126953;28;83955;-49
2023/08/12 07:48:41;;;;;;;8.52;5.38;;;24.00;58.50;;;;;;6133424;28;82335;-53
2023/08/12 07:51:41;;;;;;;8.32;4.20;;;24.00;58.30;;;;;;6133121;28;80995;-50
2023/08/12 07:54:42;;;;;;;6.82;4.60;;;24.00;58.50;;;;;;6124994;28;82178;-52
2023/08/12 07:57:42;;;;;;;9.00;4.28;;;24.10;58.70;;;;;;6128962;28;82732;-50
2023/08/12 08:00:43;;;;;;;8.38;4.75;;;24.10;58.70;;;;;;6133932;28;81631;-52
2023/08/12 08:03:43;;;;;;;7.18;4.60;;;24.10;59.00;;;;;;6129937;28;82397;-52
2023/08/12 08:06:44;;;;;;;10.05;4.70;;;24.10;59.40;;;;;;6132093;28;80838;-51
2023/08/12 08:09:44;;;;;;;9.35;4.38;;;24.10;59.40;;;;;;6129979;28;81010;-65
2023/08/12 08:12:45;;;;;;;11.70;4.47;;;24.10;59.60;;;;;;6158027;28;82702;-64
2023/08/12 08:15:45;;;;;;;5.65;4.25;;;24.10;59.60;;;;;;6141832;28;80486;-68
2023/08/12 08:18:46;;;;;;;8.65;4.50;;;24.20;59.70;;;;;;6121755;28;80791;-65
2023/08/12 08:21:46;;;;;;;7.40;3.67;;;24.20;59.60;;;;;;6129279;28;80611;-65
2023/08/12 08:24:47;;;;;;;8.02;4.53;;;24.20;59.90;;;;;;6150711;28;80364;-58
2023/08/12 08:27:47;;;;;;;6.40;4.28;;;24.20;59.70;;;;;;6125993;28;82251;-62
2023/08/12 08:30:48;;;;;;;8.15;4.93;;;24.20;59.70;;;;;;6143804;28;80517;-64
2023/08/12 08:33:48;;;;;;;10.35;5.05;;;24.20;58.40;;;;;;6159827;28;81329;-64
2023/08/12 08:36:49;;;;;;;9.18;4.80;;;24.30;57.80;;;;;;6135935;28;80832;-64
2023/08/12 08:39:49;;;;;;;7.63;4.43;;;24.30;57.20;;;;;;6123524;28;80377;-62
2023/08/12 08:42:50;;;;;;;8.00;4.97;;;24.30;56.80;;;;;;6126243;28;80846;-62
2023/08/12 08:45:50;;;;;;;9.02;4.35;;;24.40;57.10;;;;;;6128901;28;81304;-66
2023/08/12 08:48:51;;;;;;;6.35;3.65;;;24.40;56.60;;;;;;6128071;28;80611;-66
2023/08/12 08:51:51;;;;;;;10.38;4.13;;;24.40;56.50;;;;;;6126934;28;83056;-65
2023/08/12 08:54:52;;;;;;;5.35;3.10;;;24.50;56.30;;;;;;6130214;28;80346;-67
2023/08/12 08:57:53;;;;;;;11.65;3.78;;;24.40;55.40;;;;;;6127553;28;81589;-65
2023/08/12 09:00:53;;;;;;;7.07;2.80;;;24.40;54.70;;;;;;6129004;28;82481;-66
2023/08/12 09:03:54;;;;;;;7.15;2.80;;;24.50;52.40;;;;;;6121144;28;81360;-66
2023/08/12 09:06:55;;;;;;;7.25;3.20;;;24.60;52.80;;;;;;6119785;28;81026;-59
2023/08/12 09:09:55;;;;;;;6.22;3.10;;;24.60;53.30;;;;;;6117553;28;80384;-55
2023/08/12 09:12:56;;;;;;;5.32;3.50;;;24.70;53.90;;;;;;6127520;28;81676;-56
2023/08/12 09:15:56;;;;;;;5.07;3.05;;;24.80;53.20;;;;;;6130168;28;81048;-58
2023/08/12 09:18:57;;;;;;;4.75;3.45;;;24.80;52.80;;;;;;6116744;28;80396;-57
2023/08/12 09:21:57;;;;;;;4.80;3.67;;;24.90;53.60;;;;;;6125421;28;80811;-56
2023/08/12 09:24:58;;;;;;;6.68;3.20;;;24.90;53.90;;;;;;6128182;28;81059;-64
2023/08/12 09:27:58;;;;;;;6.07;3.33;;;24.90;53.60;;;;;;6115349;28;80557;-69
2023/08/12 09:30:59;;;;;;;11.25;3.78;;;24.90;53.30;;;;;;6126642;28;80460;-65
2023/08/12 09:33:59;;;;;;;8.35;3.22;;;25.00;52.90;;;;;;6136406;28;81603;-64
2023/08/12 09:37:00;;;;;;;9.10;2.90;;;25.00;53.40;;;;;;6140398;28;80903;-64
2023/08/12 09:40:00;;;;;;;7.50;3.22;;;25.10;53.60;;;;;;6119993;28;80532;-63
2023/08/12 09:43:01;;;;;;;5.00;2.90;;;25.10;52.80;;;;;;6122811;28;81024;-65
2023/08/12 09:46:01;;;;;;;6.53;3.20;;;25.10;53.30;;;;;;6125846;28;81629;-67
2023/08/12 09:49:04;;;;;;;5.60;3.20;;;25.10;53.90;;;;;;6125371;28;80756;-64
2023/08/12 09:52:04;;;;;;;5.63;3.00;;;25.10;53.70;;;;;;6119036;28;80718;-65
2023/08/12 09:55:05;;;;;;;6.13;3.60;;;25.10;53.50;;;;;;6118125;28;80740;-67
2023/08/12 09:58:05;;;;;;;6.15;3.67;;;25.10;53.30;;;;;;6144633;28;87718;-63
2023/08/12 10:01:07;;;;;;;5.63;3.45;;;25.10;54.00;;;;;;6126221;28;82336;-67
2023/08/12 10:04:08;;;;;;;7.63;3.33;;;25.00;53.60;;;;;;6127820;28;80541;-66
2023/08/12 10:07:08;;;;;;;6.32;3.47;;;24.90;53.60;;;;;;6149421;28;80781;-68
2023/08/12 10:10:09;;;;;;;5.13;3.22;;;24.90;53.90;;;;;;6122686;28;80977;-67
2023/08/12 10:13:09;;;;;;;3.90;2.97;;;24.90;53.90;;;;;;6136709;28;81255;-68
2023/08/12 10:16:10;;;;;;;7.63;3.00;;;25.00;53.90;;;;;;6143937;28;80861;-66
2023/08/12 10:19:10;;;;;;;5.32;3.22;;;25.00;53.90;;;;;;6133932;28;81683;-66
2023/08/12 10:22:11;;;;;;;5.13;3.03;;;25.00;53.90;;;;;;6139261;28;80517;-66
2023/08/12 10:25:11;;;;;;;5.43;2.92;;;25.00;53.90;;;;;;6127315;28;80787;-65
2023/08/12 10:28:12;;;;;;;6.60;2.92;;;24.90;54.10;;;;;;6127854;28;81662;-64
2023/08/12 10:31:13;;;;;;;7.13;2.80;;;24.90;55.10;;;;;;6128300;28;81901;-63
2023/08/12 10:34:14;;;;;;;7.97;2.55;;;25.00;55.20;;;;;;6150814;28;83617;-65
2023/08/12 10:37:14;;;;;;;5.68;2.92;;;25.30;55.60;;;;;;6128484;28;80678;-65
2023/08/12 10:40:15;;;;;;;4.30;2.50;;;25.30;54.60;;;;;;6128175;28;80459;-70
2023/08/12 10:43:15;;;;;;;4.85;2.60;;;25.40;54.40;;;;;;6139506;28;80451;-64
2023/08/12 10:46:16;;;;;;;4.25;2.65;;;25.40;54.20;;;;;;6141180;28;81056;-69
2023/08/12 10:49:16;;;;;;;5.40;2.65;;;25.50;53.70;;;;;;6138451;28;80716;-70
2023/08/12 10:52:17;;;;;;;7.95;2.75;;;25.50;53.90;;;;;;6094842;28;86826;-70
2023/08/12 10:55:17;;;;;;;5.60;2.70;;;25.40;53.80;;;;;;6122386;28;81329;-62
2023/08/12 10:58:18;;;;;;;5.13;2.75;;;25.40;53.80;;;;;;6113199;28;83739;-72
2023/08/12 11:01:19;;;;;;;3.35;2.63;;;25.50;53.90;;;;;;6120219;28;80726;-68
2023/08/12 11:04:19;;;;;;;4.22;2.60;;;25.50;54.10;;;;;;6122825;28;81408;-65
2023/08/12 11:07:20;;;;;;;5.60;2.10;;;25.50;53.10;;;;;;6116634;28;81622;-64
2023/08/12 11:10:20;;;;;;;5.15;2.75;;;25.60;53.00;;;;;;6120583;28;81601;-64
2023/08/12 11:13:21;;;;;;;3.55;2.53;;;25.60;52.80;;;;;;6121458;28;84365;-64
2023/08/12 11:16:21;;;;;;;5.57;2.88;;;25.60;52.80;;;;;;6124809;28;83505;-65
2023/08/12 11:19:22;;;;;;;5.45;3.13;;;25.70;53.20;;;;;;6140689;28;85252;-60
2023/08/12 11:22:22;;;;;;;5.68;2.92;;;25.70;52.50;;;;;;6112693;28;80298;-62
2023/08/12 11:25:23;;;;;;;4.05;2.67;;;25.80;52.90;;;;;;6115442;28;81394;-63
2023/08/12 11:28:23;;;;;;;6.10;2.47;;;25.80;52.30;;;;;;6117129;28;81227;-63
2023/08/12 11:31:24;;;;;;;2.20;2.00;;;26.00;52.90;;;;;;6139353;28;80445;-59
2023/08/12 11:34:24;;;;;;;3.08;2.25;;;26.10;52.00;;;;;;6143376;28;80634;-56
2023/08/12 11:37:25;;;;;;;4.82;2.95;;;26.10;51.30;;;;;;6115719;28;83597;-62
2023/08/12 11:40:25;;;;;;;2.97;2.25;;;26.20;51.80;;;;;;6118977;28;82257;-61
2023/08/12 11:43:26;;;;;;;8.45;3.15;;;26.20;52.10;;;;;;6113053;28;80486;-61
2023/08/12 11:46:26;;;;;;;5.20;2.50;;;26.20;52.70;;;;;;6112696;28;88579;-62
2023/08/12 11:49:27;;;;;;;9.57;3.85;;;26.10;52.90;;;;;;6097054;28;81942;-62
2023/08/12 11:52:27;;;;;;;5.80;2.97;;;26.00;53.30;;;;;;6124048;28;81711;-57
2023/08/12 11:55:28;;;;;;;5.60;2.67;;;26.00;53.40;;;;;;6130454;28;81291;-60
2023/08/12 11:58:28;;;;;;;5.30;3.40;;;26.00;53.90;;;;;;6122892;28;81704;-58
2023/08/12 12:01:29;;;;;;;5.00;3.08;;;26.00;54.00;;;;;;6107205;28;81948;-58
2023/08/12 12:04:29;;;;;;;5.22;3.08;;;26.00;54.70;;;;;;6113907;28;80832;-60
2023/08/12 12:07:31;;;;;;;6.18;3.13;;;26.00;54.30;;;;;;6127609;28;81261;-60
2023/08/12 12:10:31;;;;;;;5.47;3.63;;;26.00;53.50;;;;;;6132497;28;81845;-58
2023/08/12 12:13:32;;;;;;;3.35;2.30;;;26.10;52.20;;;;;;6134479;28;81334;-58
2023/08/12 12:16:32;;;;;;;5.57;2.92;;;26.10;52.30;;;;;;6135935;28;81869;-60
2023/08/12 12:19:33;;;;;;;21.02;7.65;;;26.20;53.50;;;;;;6127071;28;81899;-60
2023/08/12 12:22:33;;;;;;;27.10;7.50;;;26.10;54.60;;;;;;6134462;28;81530;-60
2023/08/12 12:25:34;;;;;;;10.93;4.90;;;26.00;54.60;;;;;;6131977;28;81989;-61
2023/08/12 12:28:34;;;;;;;9.85;3.63;;;26.10;54.00;;;;;;6134839;28;81758;-61
2023/08/12 12:31:35;;;;;;;34.90;10.98;;;26.10;53.90;;;;;;6130385;28;81097;-61
2023/08/12 12:34:36;;;;;;;10.35;4.97;;;26.10;55.30;;;;;;6124071;28;84414;-63
2023/08/12 12:37:36;;;;;;;9.52;5.95;;;26.20;55.60;;;;;;6134435;28;82827;-63
2023/08/12 12:40:38;;;;;;;11.20;5.57;;;26.30;55.40;;;;;;6125703;28;81959;-62
2023/08/12 12:43:38;;;;;;;6.78;3.05;;;26.30;54.50;;;;;;6131955;28;81483;-62
2023/08/12 12:46:39;;;;;;;6.88;3.28;;;26.40;52.80;;;;;;6131111;28;80929;-61
2023/08/12 12:49:41;;;;;;;4.65;3.33;;;26.30;52.90;;;;;;6128116;28;81739;-63
2023/08/12 12:52:41;;;;;;;5.07;3.15;;;26.30;53.20;;;;;;6134312;28;82175;-62
2023/08/12 12:55:42;;;;;;;6.60;3.33;;;26.20;53.20;;;;;;6132519;28;81277;-61
2023/08/12 12:58:43;;;;;;;6.00;3.50;;;26.10;53.30;;;;;;6128185;28;81304;-59
2023/08/12 13:01:43;;;;;;;6.82;2.67;;;26.00;53.40;;;;;;6126939;28;81669;-61
2023/08/12 13:04:44;;;;;;;3.80;2.78;;;26.00;54.70;;;;;;6126504;28;80558;-74
2023/08/12 13:07:45;;;;;;;4.18;2.72;;;26.00;54.40;;;;;;6132117;28;84534;-68
2023/08/12 13:10:45;;;;;;;3.90;2.60;;;25.90;54.20;;;;;;6123542;28;81987;-72
2023/08/12 13:13:46;;;;;;;4.30;2.78;;;25.90;54.30;;;;;;6115416;28;82269;-70
2023/08/12 13:16:46;;;;;;;4.32;2.40;;;25.80;54.00;;;;;;6126604;28;80686;-66
2023/08/12 13:19:47;;;;;;;5.68;2.50;;;25.80;53.70;;;;;;6116649;28;86533;-66
2023/08/12 13:22:47;;;;;;;5.40;2.35;;;25.90;53.60;;;;;;6125432;28;81126;-65
2023/08/12 13:25:48;;;;;;;4.38;2.38;;;25.90;53.70;;;;;;6127681;28;81486;-62
2023/08/12 13:28:48;;;;;;;6.90;2.78;;;25.80;54.10;;;;;;6122499;28;83601;-65
2023/08/12 13:31:49;;;;;;;3.60;2.42;;;25.70;53.60;;;;;;6126461;28;84783;-65
2023/08/12 13:34:49;;;;;;;6.82;2.20;;;25.70;53.40;;;;;;6128933;28;82029;-65
2023/08/12 13:37:51;;;;;;;3.38;2.30;;;25.60;53.20;;;;;;6141823;28;81025;-59
2023/08/12 13:40:51;;;;;;;3.97;2.50;;;25.70;53.30;;;;;;6128579;28;80472;-60
2023/08/12 13:43:52;;;;;;;4.03;1.95;;;25.70;53.10;;;;;;6129732;28;80909;-59
2023/08/12 13:46:52;;;;;;;7.28;2.65;;;25.70;53.90;;;;;;6128082;28;81717;-67
2023/08/12 13:49:52;;;;;;;5.82;2.42;;;25.70;54.30;;;;;;6128224;28;87093;-69
2023/08/12 13:52:53;;;;;;;3.10;2.55;;;25.90;55.00;;;;;;6137829;28;80465;-69
2023/08/12 13:55:53;;;;;;;11.20;3.10;;;25.90;54.80;;;;;;6119870;28;81421;-68
2023/08/12 13:58:54;;;;;;;5.75;2.55;;;25.90;54.80;;;;;;6121715;28;80922;-55
2023/08/12 14:01:55;;;;;;;4.97;2.95;;;25.90;54.80;;;;;;6131090;28;83431;-56
2023/08/12 14:04:55;;;;;;;3.90;2.90;;;25.90;55.10;;;;;;6125897;28;80409;-57
2023/08/12 14:07:56;;;;;;;6.30;2.70;;;25.80;54.70;;;;;;6124765;28;80865;-56
2023/08/12 14:10:56;;;;;;;4.05;2.58;;;25.70;54.40;;;;;;6123865;28;81580;-56
2023/08/12 14:13:56;;;;;;;4.90;2.97;;;25.60;54.20;;;;;;6124598;28;81171;-56
2023/08/12 14:16:57;;;;;;;5.47;2.30;;;25.60;54.30;;;;;;6134947;28;80625;-58
2023/08/12 14:19:59;;;;;;;5.93;2.80;;;25.70;54.60;;;;;;6112698;28;81548;-60
2023/08/12 14:23:00;;;;;;;5.63;2.42;;;25.70;54.70;;;;;;6126843;28;80608;-58
2023/08/12 14:26:00;;;;;;;5.57;3.50;;;25.70;54.70;;;;;;6127209;28;82018;-58
2023/08/12 14:29:01;;;;;;;4.50;2.70;;;25.70;54.70;;;;;;6127925;28;81786;-58
2023/08/12 14:32:02;;;;;;;4.72;2.83;;;25.70;54.60;;;;;;6135907;28;80767;-58
2023/08/12 14:35:02;;;;;;;6.03;2.47;;;25.70;54.80;;;;;;6145619;28;80241;-58
2023/08/12 14:38:03;;;;;;;5.00;2.50;;;25.60;54.30;;;;;;6128077;28;80662;-67
2023/08/12 14:41:03;;;;;;;4.15;2.83;;;25.60;54.60;;;;;;6128330;28;80367;-68
2023/08/12 14:44:04;;;;;;;3.35;2.58;;;25.50;54.60;;;;;;6127417;28;80036;-68
2023/08/12 14:47:04;;;;;;;3.92;2.42;;;25.50;54.80;;;;;;6134139;28;80377;-68
2023/08/12 14:50:05;;;;;;;4.07;2.55;;;25.50;54.90;;;;;;6134936;28;80647;-66
2023/08/12 14:53:05;;;;;;;5.93;2.65;;;25.50;54.90;;;;;;6128476;28;80335;-69
2023/08/12 14:56:06;;;;;;;6.82;3.20;;;25.50;55.00;;;;;;6115411;28;82901;-55
2023/08/12 14:59:07;;;;;;;5.18;3.40;;;25.50;55.10;;;;;;6127046;28;80368;-58
2023/08/12 15:02:07;;;;;;;6.97;3.67;;;25.40;55.40;;;;;;6127157;28;80235;-57
2023/08/12 15:05:08;;;;;;;6.03;2.80;;;25.40;55.40;;;;;;6127325;28;80806;-58
2023/08/12 15:08:08;;;;;;;9.45;3.00;;;25.40;55.50;;;;;;6127702;28;80194;-58
2023/08/12 15:11:09;;;;;;;5.47;2.78;;;25.40;55.80;;;;;;6111490;28;81299;-58
2023/08/12 15:14:09;;;;;;;4.70;2.75;;;25.40;55.60;;;;;;6120479;28;80487;-68
2023/08/12 15:17:10;;;;;;;10.32;3.95;;;25.40;55.60;;;;;;6116292;28;80651;-68
2023/08/12 15:20:10;;;;;;;5.32;2.90;;;25.40;55.90;;;;;;6126730;28;81838;-69
2023/08/12 15:23:11;;;;;;;3.83;2.55;;;25.30;56.00;;;;;;6120779;28;80904;-67
2023/08/12 15:26:11;;;;;;;7.38;3.53;;;25.30;55.90;;;;;;6110751;28;80434;-68
2023/08/12 15:29:12;;;;;;;5.50;2.80;;;25.30;55.90;;;;;;6116332;28;81029;-68
2023/08/12 15:32:12;;;;;;;4.32;2.70;;;25.30;56.00;;;;;;6129760;28;80406;-70
2023/08/12 15:35:13;;;;;;;6.15;3.20;;;25.40;56.20;;;;;;6143014;28;82701;-71
2023/08/12 15:38:13;;;;;;;5.05;2.88;;;25.40;56.20;;;;;;6108996;28;81108;-70